Time;durP1;ratioP1;P1;durP2;ratioP2;P2;SDS_P1;SDS_P2;PMS_P1;PMS_P2;Temp;Humidity;BMP_temperature;BMP_pressure;BME280_temperature;BME280_humidity;BME280_pressure;Samples;Min_cycle;Max_cycle;Signal;HPM_P1;HPM_P2
2023/04/13 00:00:31;;;;;;;13.52;2.10;;;35.00;23.80;;;;;;5049363;28;20020;-56
2023/04/13 00:02:59;;;;;;;47.95;3.75;;;35.20;25.00;;;;;;5056180;28;20489;-58
2023/04/13 00:05:26;;;;;;;12.52;2.60;;;34.90;25.40;;;;;;5051886;28;20062;-58
2023/04/13 00:07:54;;;;;;;18.70;3.10;;;34.80;25.50;;;;;;5049035;28;20058;-58
2023/04/13 00:10:21;;;;;;;17.17;2.40;;;34.80;25.80;;;;;;5049769;28;20072;-57
2023/04/13 00:12:49;;;;;;;19.42;2.63;;;34.70;26.30;;;;;;5049713;28;20057;-59
2023/04/13 00:15:18;;;;;;;18.27;2.15;;;34.60;27.20;;;;;;5049019;28;20065;-57
2023/04/13 00:17:46;;;;;;;14.43;2.17;;;34.40;27.10;;;;;;5049227;28;20054;-55
2023/04/13 00:20:13;;;;;;;34.95;2.97;;;34.20;27.30;;;;;;5049130;28;20064;-55
2023/04/13 00:22:45;;;;;;;21.42;2.42;;;34.20;27.50;;;;;;5048465;28;20086;-57
2023/04/13 00:25:16;;;;;;;33.67;4.00;;;34.00;27.50;;;;;;5048691;28;20095;-59
2023/04/13 00:27:42;;;;;;;31.58;3.42;;;33.60;27.30;;;;;;5048618;28;20090;-53
2023/04/13 00:30:16;;;;;;;12.55;3.05;;;33.20;28.10;;;;;;5048946;28;20062;-56
2023/04/13 00:32:44;;;;;;;69.65;5.30;;;33.20;28.50;;;;;;5048273;28;20067;-58
2023/04/13 00:35:23;;;;;;;42.80;3.55;;;33.30;28.80;;;;;;5049192;28;20089;-60
2023/04/13 00:37:50;;;;;;;44.58;3.38;;;33.10;28.90;;;;;;5048560;28;20193;-58
2023/04/13 00:40:18;;;;;;;18.95;2.63;;;33.00;29.20;;;;;;5047410;28;20198;-58
2023/04/13 00:42:46;;;;;;;27.85;3.60;;;32.70;29.40;;;;;;5047863;28;20099;-61
2023/04/13 00:45:12;;;;;;;21.23;3.00;;;32.40;29.80;;;;;;5048419;28;20066;-58
2023/04/13 00:47:42;;;;;;;19.83;2.88;;;32.30;30.00;;;;;;5048441;28;20561;-56
2023/04/13 00:50:08;;;;;;;28.40;3.60;;;32.10;29.60;;;;;;5049939;28;20111;-55
2023/04/13 00:52:38;;;;;;;25.25;2.33;;;32.00;30.00;;;;;;5058673;28;20525;-54
2023/04/13 00:55:06;;;;;;;19.50;2.60;;;32.00;30.50;;;;;;5055319;28;20067;-57
2023/04/13 00:57:34;;;;;;;22.42;2.53;;;31.80;31.40;;;;;;5047903;28;20574;-54
2023/04/13 01:00:08;;;;;;;15.52;2.88;;;31.60;33.20;;;;;;5049449;28;20083;-58
2023/04/13 01:02:35;;;;;;;28.15;2.92;;;31.60;34.50;;;;;;5048061;28;20174;-57
2023/04/13 01:05:03;;;;;;;20.15;2.35;;;31.50;34.60;;;;;;5051977;28;20069;-54
2023/04/13 01:07:47;;;;;;;17.00;2.20;;;31.30;33.80;;;;;;5047034;28;20095;-56
2023/04/13 01:10:27;;;;;;;24.25;2.40;;;31.20;33.50;;;;;;5047460;28;20434;-61
2023/04/13 01:13:15;;;;;;;36.05;2.60;;;31.00;33.70;;;;;;5048599;28;20568;-54
2023/04/13 01:15:48;;;;;;;32.05;2.97;;;30.80;34.30;;;;;;5048640;28;20075;-55
2023/04/13 01:18:15;;;;;;;33.30;3.15;;;30.40;34.50;;;;;;5049123;28;20166;-57
2023/04/13 01:20:45;;;;;;;32.53;3.50;;;30.10;34.20;;;;;;5048954;28;20075;-58
2023/04/13 01:23:59;;;;;;;35.85;3.80;;;29.90;34.00;;;;;;5049213;28;20088;-57
2023/04/13 01:26:37;;;;;;;25.08;2.42;;;29.70;34.70;;;;;;5044548;28;20135;-57
2023/04/13 01:29:05;;;;;;;35.00;3.00;;;29.60;35.10;;;;;;5062890;28;20087;-58
2023/04/13 01:31:34;;;;;;;21.40;2.35;;;29.50;35.40;;;;;;5047198;28;20146;-58
2023/04/13 01:34:01;;;;;;;17.60;3.03;;;29.30;35.60;;;;;;5047792;28;20122;-57
2023/04/13 01:36:28;;;;;;;10.63;2.55;;;29.10;36.10;;;;;;5048277;28;20190;-57
2023/04/13 01:38:54;;;;;;;10.30;1.88;;;29.10;36.20;;;;;;5054272;28;20092;-56
2023/04/13 01:41:21;;;;;;;17.42;1.95;;;28.90;36.20;;;;;;5047760;28;20451;-54
2023/04/13 01:43:47;;;;;;;11.65;1.50;;;28.80;36.70;;;;;;5048324;28;20483;-55
2023/04/13 01:46:14;;;;;;;14.48;2.25;;;28.70;36.60;;;;;;5048369;28;20076;-54
2023/04/13 01:48:55;;;;;;;15.30;1.98;;;28.60;36.50;;;;;;5049056;28;20424;-57
2023/04/13 01:51:30;;;;;;;11.40;1.73;;;28.40;36.60;;;;;;5048479;28;20504;-55
2023/04/13 01:54:33;;;;;;;10.10;1.75;;;28.40;36.60;;;;;;5048069;28;20072;-56
2023/04/13 01:57:00;;;;;;;19.13;2.13;;;28.30;37.30;;;;;;4967452;28;20109;-57
2023/04/13 01:59:27;;;;;;;11.32;1.67;;;28.10;37.20;;;;;;4967750;28;20125;-57
2023/04/13 02:01:54;;;;;;;13.93;1.77;;;28.10;37.60;;;;;;4967651;28;20090;-61
2023/04/13 02:04:20;;;;;;;7.50;1.63;;;28.00;37.50;;;;;;4970756;28;20070;-59
2023/04/13 02:06:47;;;;;;;11.73;1.80;;;27.90;37.70;;;;;;4967416;28;20082;-56
2023/04/13 02:09:13;;;;;;;12.73;1.75;;;27.80;37.90;;;;;;4967261;28;20082;-58
2023/04/13 02:11:39;;;;;;;15.70;1.90;;;27.70;38.10;;;;;;4967528;28;20214;-57
2023/04/13 02:14:08;;;;;;;8.45;1.70;;;27.70;37.90;;;;;;4967627;28;20218;-57
2023/04/13 02:16:34;;;;;;;10.30;1.50;;;27.70;38.10;;;;;;4967139;28;20593;-55
2023/04/13 02:19:01;;;;;;;11.05;1.40;;;27.60;38.20;;;;;;4968355;28;20242;-57
2023/04/13 02:21:27;;;;;;;8.20;1.70;;;27.60;38.30;;;;;;4967403;28;20078;-56
2023/04/13 02:23:54;;;;;;;7.78;2.03;;;27.50;38.30;;;;;;4967309;28;20538;-54
2023/04/13 02:26:20;;;;;;;10.98;1.70;;;27.40;38.60;;;;;;4970056;28;20443;-56
2023/04/13 02:28:48;;;;;;;15.63;1.70;;;27.30;39.00;;;;;;4967907;28;20081;-57
2023/04/13 02:31:15;;;;;;;11.90;2.20;;;27.30;39.30;;;;;;4967294;28;20094;-58
2023/04/13 02:33:43;;;;;;;9.48;2.03;;;27.20;39.60;;;;;;5043393;28;20089;-56
2023/04/13 02:36:10;;;;;;;7.40;2.00;;;27.20;39.90;;;;;;5047730;28;20065;-51
2023/04/13 02:38:37;;;;;;;10.15;1.92;;;27.10;39.90;;;;;;5047296;28;20537;-55
2023/04/13 02:41:03;;;;;;;6.50;1.98;;;27.10;40.10;;;;;;5044827;28;20095;-55
2023/04/13 02:43:30;;;;;;;6.50;2.10;;;27.00;40.10;;;;;;5046902;28;20100;-56
2023/04/13 02:45:56;;;;;;;11.57;2.92;;;26.90;40.20;;;;;;5047027;28;20079;-58
2023/04/13 02:48:23;;;;;;;14.00;3.10;;;26.80;40.40;;;;;;5048223;28;20096;-56
2023/04/13 02:50:50;;;;;;;12.68;2.90;;;26.70;40.20;;;;;;5048696;28;20123;-56
2023/04/13 02:53:17;;;;;;;12.55;2.60;;;26.50;40.20;;;;;;5048869;28;20065;-58
2023/04/13 02:55:43;;;;;;;7.50;2.50;;;26.50;40.40;;;;;;5047532;28;20444;-57
2023/04/13 02:58:11;;;;;;;15.48;2.30;;;26.40;40.50;;;;;;5049530;28;20071;-56
2023/04/13 03:00:37;;;;;;;15.25;2.75;;;26.40;40.40;;;;;;5047244;28;20106;-54
2023/04/13 03:03:05;;;;;;;10.70;2.30;;;26.40;40.40;;;;;;5048173;28;20533;-55
2023/04/13 03:05:32;;;;;;;18.70;2.30;;;26.30;40.20;;;;;;5052268;28;20103;-57
2023/04/13 03:07:59;;;;;;;14.43;2.70;;;26.20;40.30;;;;;;5051037;28;20530;-57
2023/04/13 03:10:25;;;;;;;14.40;3.08;;;26.10;40.40;;;;;;5051609;28;20478;-59
2023/04/13 03:12:52;;;;;;;19.33;3.03;;;26.00;40.30;;;;;;5051295;28;20083;-57
2023/04/13 03:15:18;;;;;;;14.65;2.88;;;25.90;40.20;;;;;;5051601;28;20084;-57
2023/04/13 03:17:45;;;;;;;9.10;2.78;;;25.90;40.20;;;;;;5051675;28;20065;-54
2023/04/13 03:20:14;;;;;;;8.60;3.22;;;25.80;40.10;;;;;;5052360;28;20150;-58
2023/04/13 03:22:40;;;;;;;10.68;2.75;;;25.80;40.40;;;;;;5055937;28;20079;-59
2023/04/13 03:25:07;;;;;;;12.93;2.97;;;25.80;40.60;;;;;;5051398;28;20139;-58
2023/04/13 03:27:35;;;;;;;13.38;2.58;;;25.70;40.80;;;;;;5050755;28;20068;-56
2023/04/13 03:30:05;;;;;;;10.02;2.28;;;25.60;40.70;;;;;;5050394;28;20065;-57
2023/04/13 03:32:31;;;;;;;14.43;2.78;;;25.60;40.70;;;;;;5050669;28;20099;-56
2023/04/13 03:34:58;;;;;;;22.83;2.80;;;25.60;41.30;;;;;;5050622;28;20076;-57
2023/04/13 03:37:28;;;;;;;16.70;3.08;;;25.50;41.80;;;;;;5050882;28;20142;-55
2023/04/13 03:39:55;;;;;;;17.95;3.00;;;25.40;42.10;;;;;;5049342;28;20097;-55
2023/04/13 03:42:21;;;;;;;15.40;2.63;;;25.30;42.30;;;;;;5049684;28;20075;-55
2023/04/13 03:44:48;;;;;;;16.52;2.38;;;25.30;42.00;;;;;;5050711;28;20084;-54
2023/04/13 03:47:14;;;;;;;14.82;2.50;;;25.30;42.00;;;;;;5053801;28;20076;-56
2023/04/13 03:49:41;;;;;;;8.18;2.53;;;25.20;41.80;;;;;;5052104;28;20156;-57
2023/04/13 03:52:07;;;;;;;12.85;2.75;;;25.20;42.40;;;;;;5052808;28;20149;-56
2023/04/13 03:54:34;;;;;;;12.23;3.05;;;25.10;42.80;;;;;;5052302;28;20512;-56
2023/04/13 20:26:38;;;;;;;14.45;2.13;;;28.90;29.20;;;;;;5066460;27;20541;-61
2023/04/13 20:29:05;;;;;;;7.38;1.95;;;28.70;29.10;;;;;;5066195;28;20104;-59
2023/04/13 20:31:32;;;;;;;9.20;1.80;;;28.80;28.80;;;;;;5067257;28;20108;-62
2023/04/13 20:34:02;;;;;;;7.63;1.92;;;28.90;28.50;;;;;;5064315;28;20097;-61
2023/04/13 20:36:29;;;;;;;7.88;2.10;;;28.90;28.30;;;;;;5064722;28;20076;-60
2023/04/13 20:38:59;;;;;;;6.93;1.83;;;28.80;28.30;;;;;;5063161;28;20704;-57
2023/04/13 20:41:28;;;;;;;5.88;1.90;;;28.70;28.20;;;;;;5065107;28;20955;-62
2023/04/13 20:43:55;;;;;;;18.48;3.15;;;28.70;28.20;;;;;;5064311;28;20074;-61
2023/04/13 20:46:23;;;;;;;9.82;2.30;;;28.80;28.40;;;;;;5063778;28;20099;-64
2023/04/13 20:48:51;;;;;;;15.73;2.50;;;28.80;28.70;;;;;;5063346;28;20092;-64
2023/04/13 20:51:21;;;;;;;16.02;2.50;;;28.70;29.20;;;;;;5064687;28;20559;-62
2023/04/13 20:53:48;;;;;;;7.97;2.08;;;28.60;28.70;;;;;;5066212;28;20561;-63
2023/04/13 20:56:17;;;;;;;8.27;2.10;;;28.70;28.40;;;;;;5065187;28;20067;-59
2023/04/13 20:58:45;;;;;;;12.23;2.00;;;28.50;28.30;;;;;;5064729;28;20534;-61
2023/04/13 21:01:11;;;;;;;19.83;3.53;;;28.50;28.50;;;;;;5063353;28;20076;-61
2023/04/13 21:03:38;;;;;;;13.93;2.25;;;28.70;28.70;;;;;;5066271;28;20082;-62
2023/04/13 21:06:04;;;;;;;13.25;2.45;;;28.70;28.20;;;;;;5064641;28;20088;-63
2023/04/13 21:08:31;;;;;;;13.68;2.38;;;28.80;27.50;;;;;;5064997;28;20095;-64
2023/04/13 21:10:57;;;;;;;13.98;2.30;;;28.60;27.60;;;;;;5064161;28;20076;-63
2023/04/13 21:13:24;;;;;;;11.38;2.40;;;28.60;27.40;;;;;;5063253;28;20082;-62
2023/04/13 21:15:50;;;;;;;12.23;2.10;;;28.70;28.00;;;;;;5064099;28;20515;-62
2023/04/13 21:18:16;;;;;;;13.82;2.35;;;28.50;28.00;;;;;;5062834;28;20863;-60
2023/04/13 21:20:43;;;;;;;15.57;2.67;;;28.30;27.60;;;;;;5064322;28;20407;-63
2023/04/13 21:23:09;;;;;;;18.48;3.00;;;28.10;28.00;;;;;;5064324;28;20085;-63
2023/04/13 21:25:38;;;;;;;14.60;2.33;;;28.20;27.90;;;;;;5060151;28;20113;-62
2023/04/13 21:28:05;;;;;;;13.32;2.40;;;28.20;27.60;;;;;;5064243;28;20542;-64
2023/04/13 21:30:31;;;;;;;18.85;3.10;;;28.20;28.50;;;;;;5063317;28;20064;-57
2023/04/13 21:32:58;;;;;;;19.15;2.63;;;28.00;28.90;;;;;;5063795;28;20073;-60
2023/04/13 21:35:24;;;;;;;9.00;2.00;;;28.00;28.20;;;;;;5063650;28;20069;-60
2023/04/13 21:37:50;;;;;;;31.45;3.47;;;28.10;28.50;;;;;;5050132;28;20062;-62
2023/04/13 21:40:17;;;;;;;13.05;2.40;;;28.30;28.30;;;;;;5049946;28;20083;-62
2023/04/13 21:42:43;;;;;;;12.07;2.75;;;28.20;28.10;;;;;;5050182;28;20084;-61
2023/04/13 21:45:10;;;;;;;19.63;2.92;;;28.50;27.80;;;;;;5050164;28;20094;-62
2023/04/13 21:47:36;;;;;;;19.63;2.83;;;28.80;27.50;;;;;;5050531;28;20108;-62
2023/04/13 21:50:03;;;;;;;16.83;3.30;;;28.70;27.40;;;;;;5049257;28;20065;-61
2023/04/13 21:52:30;;;;;;;18.58;3.13;;;28.60;27.50;;;;;;5049011;28;20065;-63
2023/04/13 21:54:58;;;;;;;19.02;3.65;;;28.60;27.70;;;;;;5049927;28;20540;-61
2023/04/13 21:57:28;;;;;;;13.77;2.80;;;28.70;27.60;;;;;;5049801;28;20526;-62
2023/04/13 21:59:55;;;;;;;16.67;3.40;;;28.60;27.80;;;;;;5050941;28;20079;-62
2023/04/13 22:02:23;;;;;;;11.95;3.60;;;28.50;27.70;;;;;;5050224;28;20484;-61
2023/04/13 22:04:50;;;;;;;15.13;3.20;;;28.70;27.50;;;;;;5051080;28;20084;-62
2023/04/13 22:07:16;;;;;;;17.33;3.00;;;28.60;27.10;;;;;;5049864;28;20615;-59
2023/04/13 22:09:42;;;;;;;9.18;2.28;;;28.60;26.90;;;;;;5048795;28;20176;-56
2023/04/13 22:12:09;;;;;;;18.90;3.35;;;28.70;26.80;;;;;;5049786;28;20068;-61
2023/04/13 22:14:36;;;;;;;11.23;2.80;;;28.70;26.70;;;;;;5049727;28;20084;-62
2023/04/13 22:17:02;;;;;;;14.80;2.75;;;28.90;26.70;;;;;;5050543;28;20142;-61
2023/04/13 22:19:29;;;;;;;18.90;3.38;;;29.10;26.40;;;;;;5047686;28;20115;-58
2023/04/13 22:21:55;;;;;;;27.15;3.60;;;28.90;26.50;;;;;;5049590;28;20108;-66
2023/04/13 22:24:21;;;;;;;25.30;4.00;;;28.80;26.20;;;;;;5050487;28;20114;-61
2023/04/13 22:26:48;;;;;;;15.60;3.15;;;28.50;27.00;;;;;;5048844;28;20103;-58
2023/04/13 22:29:14;;;;;;;20.40;3.00;;;28.40;26.50;;;;;;5048157;28;20078;-62
2023/04/13 22:31:40;;;;;;;8.55;2.42;;;28.30;25.90;;;;;;5048879;28;20099;-62
2023/04/13 22:34:07;;;;;;;11.85;2.90;;;28.20;25.60;;;;;;5047183;28;20076;-63
2023/04/13 22:36:33;;;;;;;11.80;2.47;;;28.30;25.80;;;;;;5048225;28;20087;-58
2023/04/13 22:39:00;;;;;;;17.50;2.53;;;28.20;25.80;;;;;;5048284;28;20077;-63
2023/04/13 22:41:26;;;;;;;12.60;2.28;;;27.80;25.80;;;;;;5043732;28;20069;-63
2023/04/13 22:43:53;;;;;;;11.88;2.35;;;27.80;25.90;;;;;;5048457;28;20084;-62
2023/04/13 22:46:19;;;;;;;8.98;2.88;;;28.10;26.30;;;;;;5047762;28;20107;-62
2023/04/13 22:48:47;;;;;;;6.82;2.30;;;28.20;25.80;;;;;;5046940;28;20073;-62
2023/04/13 22:51:13;;;;;;;10.68;2.30;;;28.20;25.40;;;;;;5047662;28;20085;-62
2023/04/13 22:53:39;;;;;;;6.78;1.90;;;28.10;24.90;;;;;;5047765;28;20072;-57
2023/04/13 22:56:06;;;;;;;14.73;2.50;;;28.20;25.20;;;;;;5049746;28;20125;-65
2023/04/13 22:58:32;;;;;;;6.13;2.50;;;28.10;24.60;;;;;;5047718;28;20083;-60
2023/04/13 23:00:59;;;;;;;10.68;2.40;;;28.10;24.80;;;;;;5048551;28;20067;-62
2023/04/13 23:03:26;;;;;;;7.03;2.33;;;28.10;24.80;;;;;;5052722;28;20076;-60
2023/04/13 23:05:52;;;;;;;10.13;2.35;;;28.10;24.80;;;;;;5048440;28;20092;-57
2023/04/13 23:08:18;;;;;;;16.67;2.40;;;28.00;24.80;;;;;;5048882;28;20089;-62
2023/04/13 23:10:45;;;;;;;9.18;2.45;;;27.90;25.20;;;;;;5047126;28;20071;-61
2023/04/13 23:13:11;;;;;;;17.25;2.65;;;27.70;25.40;;;;;;5048046;28;20068;-62
2023/04/13 23:15:38;;;;;;;7.45;2.80;;;27.70;25.50;;;;;;5048937;28;20416;-60
2023/04/13 23:18:04;;;;;;;9.02;2.78;;;27.80;25.40;;;;;;5047517;28;20073;-61
2023/04/13 23:20:31;;;;;;;10.48;2.90;;;27.90;25.10;;;;;;5047758;28;20087;-61
2023/04/13 23:22:58;;;;;;;44.72;3.97;;;27.50;25.00;;;;;;5046242;28;20433;-61
2023/04/13 23:25:24;;;;;;;9.13;2.65;;;27.60;24.70;;;;;;5046673;28;20108;-62
2023/04/13 23:27:50;;;;;;;8.18;2.35;;;27.40;24.20;;;;;;5048597;28;20517;-59
2023/04/13 23:30:17;;;;;;;9.50;2.58;;;27.50;24.60;;;;;;5047335;28;20081;-62
2023/04/13 23:32:43;;;;;;;7.85;2.85;;;27.50;24.60;;;;;;5047727;28;20119;-63
2023/04/13 23:35:10;;;;;;;18.55;3.13;;;27.70;25.40;;;;;;5046959;28;20081;-61
2023/04/13 23:37:36;;;;;;;14.30;3.10;;;27.60;25.90;;;;;;5046448;28;20445;-61
2023/04/13 23:40:04;;;;;;;13.10;3.08;;;27.40;26.00;;;;;;5047705;28;20081;-59
2023/04/13 23:42:30;;;;;;;17.73;3.88;;;27.30;26.10;;;;;;5042806;28;20076;-62
2023/04/13 23:44:57;;;;;;;10.90;2.70;;;27.20;26.40;;;;;;5046922;28;20092;-62
2023/04/13 23:47:24;;;;;;;13.60;3.30;;;27.20;26.20;;;;;;5046188;28;20072;-62
2023/04/13 23:49:52;;;;;;;13.55;2.88;;;27.20;26.30;;;;;;5046252;28;20191;-58
2023/04/13 23:52:19;;;;;;;11.95;3.55;;;27.20;26.20;;;;;;5046457;28;20116;-63
2023/04/13 23:54:45;;;;;;;12.38;3.53;;;27.20;26.40;;;;;;5048243;28;20542;-62
2023/04/13 23:57:12;;;;;;;20.17;3.72;;;27.20;26.60;;;;;;5049165;28;20109;-62
2023/04/13 23:59:38;;;;;;;14.45;3.40;;;27.20;27.20;;;;;;5047882;28;20477;-63
